73.4°F
Current conditions from King Hill
Updated every 5 minutes
 
  Saturday August 23, 2014

Station Historical Data
Daily Summary for April 18, 2010 Units:  Both    English   Metric
« Previous Day
Next Day »
Daily Weekly Monthly Yearly Custom
  High: Low: Average:
Temperature: 42.8 °F /  6 °C 34.4 °F /  1.3 °C 38.6 °F /  3.7 °C
Dew Point: 39.8 °F /  4.3 °C 33.1 °F /  0.6 °C 36.3 °F /  2.4 °C
Humidity: 95% 80% 91%
Wind Speed: 8.0mph /  12.9km/h - 3mph /  4.8km/h
Wind Gust: 17.0mph /  27.4km/h - -
Wind- - West
Pressure: 29.87 in /  1011.4 hPa 29.75 in /  1007.3 hPa -
Precipitation: 0.25 in /  6.4 mm    
Historical Graphs
 
 
Tabular Data for April 18, 2010
Time Temperature Dew Point Pressure Wind Wind Speed Wind Gust Humidity Daily Rainfall
00:07 38.5 °F /  3.6 °C 36.9 °F /  2.7 °C 29.77in /  1008hPa NW 1.0mph /  1.6km/h 5.0mph /  8km/h 94% 0.00in /  0mm
00:12 38.4 °F /  3.6 °C 36.8 °F /  2.7 °C 29.77in /  1008hPa WNW 3.0mph /  4.8km/h 5.0mph /  8km/h 94% 0.00in /  0mm
00:17 38.3 °F /  3.5 °C 36.7 °F /  2.6 °C 29.77in /  1008hPa NW 3.0mph /  4.8km/h 7.0mph /  11.3km/h 94% 0.01in /  0.3mm
00:37 38.1 °F /  3.4 °C 36.5 °F /  2.5 °C 29.77in /  1008hPa NNW 1.0mph /  1.6km/h 5.0mph /  8km/h 94% 0.01in /  0.3mm
00:47 38.1 °F /  3.4 °C 36.5 °F /  2.5 °C 29.77in /  1008hPa WNW 3.0mph /  4.8km/h 8.0mph /  12.9km/h 94% 0.02in /  0.5mm
00:57 38.1 °F /  3.4 °C 36.5 °F /  2.5 °C 29.77in /  1008hPa North 1.0mph /  1.6km/h 9.0mph /  14.5km/h 94% 0.02in /  0.5mm
01:02 38.0 °F /  3.3 °C 36.4 °F /  2.4 °C 29.77in /  1008hPa NW 2.0mph /  3.2km/h 9.0mph /  14.5km/h 94% 0.03in /  0.8mm
01:07 37.9 °F /  3.3 °C 36.3 °F /  2.4 °C 29.77in /  1008hPa NW 1.0mph /  1.6km/h 6.0mph /  9.7km/h 94% 0.03in /  0.8mm
01:17 37.8 °F /  3.2 °C 36.2 °F /  2.3 °C 29.76in /  1007.7hPa NW 2.0mph /  3.2km/h 5.0mph /  8km/h 94% 0.03in /  0.8mm
01:22 37.8 °F /  3.2 °C 36.2 °F /  2.3 °C 29.76in /  1007.7hPa NNW 3.0mph /  4.8km/h 8.0mph /  12.9km/h 94% 0.03in /  0.8mm
01:27 37.8 °F /  3.2 °C 36.2 °F /  2.3 °C 29.76in /  1007.7hPa NW 3.0mph /  4.8km/h 8.0mph /  12.9km/h 94% 0.03in /  0.8mm
01:32 37.8 °F /  3.2 °C 36.2 °F /  2.3 °C 29.76in /  1007.7hPa NNW 2.0mph /  3.2km/h 8.0mph /  12.9km/h 94% 0.03in /  0.8mm
01:37 37.7 °F /  3.2 °C 36.1 °F /  2.3 °C 29.76in /  1007.7hPa NNW 3.0mph /  4.8km/h 8.0mph /  12.9km/h 94% 0.03in /  0.8mm
01:42 37.7 °F /  3.2 °C 36.1 °F /  2.3 °C 29.76in /  1007.7hPa NNW 3.0mph /  4.8km/h 9.0mph /  14.5km/h 94% 0.03in /  0.8mm
01:47 37.7 °F /  3.2 °C 36.1 °F /  2.3 °C 29.76in /  1007.7hPa WNW 2.0mph /  3.2km/h 9.0mph /  14.5km/h 94% 0.03in /  0.8mm
01:52 37.7 °F /  3.2 °C 36.1 °F /  2.3 °C 29.76in /  1007.7hPa NW 2.0mph /  3.2km/h 8.0mph /  12.9km/h 94% 0.03in /  0.8mm
01:57 37.7 °F /  3.2 °C 36.1 °F /  2.3 °C 29.76in /  1007.7hPa WNW 3.0mph /  4.8km/h 6.0mph /  9.7km/h 94% 0.03in /  0.8mm
02:12 37.7 °F /  3.2 °C 36.1 °F /  2.3 °C 29.75in /  1007.3hPa WNW 3.0mph /  4.8km/h 8.0mph /  12.9km/h 94% 0.03in /  0.8mm
02:17 37.8 °F /  3.2 °C 36.2 °F /  2.3 °C 29.75in /  1007.3hPa NW 3.0mph /  4.8km/h 8.0mph /  12.9km/h 94% 0.03in /  0.8mm
02:22 37.7 °F /  3.2 °C 36.1 °F /  2.3 °C 29.75in /  1007.3hPa NW 4.0mph /  6.4km/h 7.0mph /  11.3km/h 94% 0.04in /  1mm
02:32 37.7 °F /  3.2 °C 36.1 °F /  2.3 °C 29.75in /  1007.3hPa NW 3.0mph /  4.8km/h 6.0mph /  9.7km/h 94% 0.04in /  1mm
02:37 37.7 °F /  3.2 °C 36.1 °F /  2.3 °C 29.75in /  1007.3hPa NW 4.0mph /  6.4km/h 8.0mph /  12.9km/h 94% 0.04in /  1mm
02:42 37.7 °F /  3.2 °C 36.1 °F /  2.3 °C 29.75in /  1007.3hPa NW 6.0mph /  9.7km/h 10.0mph /  16.1km/h 94% 0.04in /  1mm
02:47 37.6 °F /  3.1 °C 36.0 °F /  2.2 °C 29.75in /  1007.3hPa NW 5.0mph /  8km/h 10.0mph /  16.1km/h 94% 0.04in /  1mm
02:52 37.4 °F /  3 °C 35.8 °F /  2.1 °C 29.75in /  1007.3hPa NW 3.0mph /  4.8km/h 9.0mph /  14.5km/h 94% 0.04in /  1mm
02:57 37.4 °F /  3 °C 35.8 °F /  2.1 °C 29.75in /  1007.3hPa NNW 2.0mph /  3.2km/h 9.0mph /  14.5km/h 94% 0.04in /  1mm
03:02 37.3 °F /  2.9 °C 35.7 °F /  2.1 °C 29.75in /  1007.3hPa NNW 4.0mph /  6.4km/h 8.0mph /  12.9km/h 94% 0.04in /  1mm
03:07 37.2 °F /  2.9 °C 35.6 °F /  2 °C 29.75in /  1007.3hPa Calm   8.0mph /  12.9km/h 94% 0.04in /  1mm
03:17 37.1 °F /  2.8 °C 35.8 °F /  2.1 °C 29.75in /  1007.3hPa NW 5.0mph /  8km/h 7.0mph /  11.3km/h 95% 0.04in /  1mm
03:22 37.0 °F /  2.8 °C 35.7 °F /  2.1 °C 29.75in /  1007.3hPa NW 3.0mph /  4.8km/h 7.0mph /  11.3km/h 95% 0.04in /  1mm
03:27 36.9 °F /  2.7 °C 35.3 °F /  1.8 °C 29.75in /  1007.3hPa NW 3.0mph /  4.8km/h 7.0mph /  11.3km/h 94% 0.04in /  1mm
03:37 36.8 °F /  2.7 °C 35.5 °F /  1.9 °C 29.75in /  1007.3hPa NW 4.0mph /  6.4km/h 8.0mph /  12.9km/h 95% 0.04in /  1mm
03:42 36.7 °F /  2.6 °C 35.4 °F /  1.9 °C 29.75in /  1007.3hPa NW 5.0mph /  8km/h 10.0mph /  16.1km/h 95% 0.04in /  1mm
03:52 36.4 °F /  2.4 °C 34.8 °F /  1.6 °C 29.75in /  1007.3hPa NW 3.0mph /  4.8km/h 11.0mph /  17.7km/h 94% 0.04in /  1mm
03:57 36.4 °F /  2.4 °C 35.1 °F /  1.7 °C 29.75in /  1007.3hPa NW 4.0mph /  6.4km/h 10.0mph /  16.1km/h 95% 0.04in /  1mm
04:07 36.3 °F /  2.4 °C 35.0 °F /  1.7 °C 29.75in /  1007.3hPa NNW 2.0mph /  3.2km/h 8.0mph /  12.9km/h 95% 0.04in /  1mm
04:12 36.3 °F /  2.4 °C 35.0 °F /  1.7 °C 29.76in /  1007.7hPa NW 1.0mph /  1.6km/h 6.0mph /  9.7km/h 95% 0.04in /  1mm
04:17 36.3 °F /  2.4 °C 35.0 °F /  1.7 °C 29.76in /  1007.7hPa NW 4.0mph /  6.4km/h 7.0mph /  11.3km/h 95% 0.04in /  1mm
04:27 36.1 °F /  2.3 °C 34.8 °F /  1.6 °C 29.75in /  1007.3hPa WNW 3.0mph /  4.8km/h 9.0mph /  14.5km/h 95% 0.04in /  1mm
04:32 36.1 °F /  2.3 °C 34.8 °F /  1.6 °C 29.75in /  1007.3hPa NW 5.0mph /  8km/h 9.0mph /  14.5km/h 95% 0.04in /  1mm
04:37 36.1 °F /  2.3 °C 34.8 °F /  1.6 °C 29.75in /  1007.3hPa NW 4.0mph /  6.4km/h 8.0mph /  12.9km/h 95% 0.04in /  1mm
04:47 36.0 °F /  2.2 °C 34.7 °F /  1.5 °C 29.75in /  1007.3hPa NNW 1.0mph /  1.6km/h 7.0mph /  11.3km/h 95% 0.04in /  1mm
04:52 36.0 °F /  2.2 °C 34.7 °F /  1.5 °C 29.76in /  1007.7hPa North 3.0mph /  4.8km/h 10.0mph /  16.1km/h 95% 0.04in /  1mm
05:07 35.7 °F /  2.1 °C 34.4 °F /  1.3 °C 29.76in /  1007.7hPa NNW 1.0mph /  1.6km/h 8.0mph /  12.9km/h 95% 0.04in /  1mm
05:12 35.6 °F /  2 °C 34.3 °F /  1.3 °C 29.76in /  1007.7hPa NNW 3.0mph /  4.8km/h 6.0mph /  9.7km/h 95% 0.04in /  1mm
05:17 35.6 °F /  2 °C 34.3 °F /  1.3 °C 29.76in /  1007.7hPa NNW 2.0mph /  3.2km/h 6.0mph /  9.7km/h 95% 0.04in /  1mm
05:22 35.5 °F /  1.9 °C 34.2 °F /  1.2 °C 29.75in /  1007.3hPa NW 5.0mph /  8km/h 8.0mph /  12.9km/h 95% 0.04in /  1mm
05:27 35.3 °F /  1.8 °C 34.0 °F /  1.1 °C 29.75in /  1007.3hPa NNW 2.0mph /  3.2km/h 8.0mph /  12.9km/h 95% 0.04in /  1mm
05:32 35.3 °F /  1.8 °C 34.0 °F /  1.1 °C 29.76in /  1007.7hPa Calm   5.0mph /  8km/h 95% 0.04in /  1mm
05:37 35.1 °F /  1.7 °C 33.8 °F /  1 °C 29.76in /  1007.7hPa NNW 3.0mph /  4.8km/h 6.0mph /  9.7km/h 95% 0.04in /  1mm
05:42 35.1 °F /  1.7 °C 33.8 °F /  1 °C 29.76in /  1007.7hPa NW 1.0mph /  1.6km/h 6.0mph /  9.7km/h 95% 0.04in /  1mm
05:47 35.1 °F /  1.7 °C 33.8 °F /  1 °C 29.76in /  1007.7hPa NW 1.0mph /  1.6km/h 3.0mph /  4.8km/h 95% 0.04in /  1mm
05:57 35.0 °F /  1.7 °C 33.7 °F /  0.9 °C 29.77in /  1008hPa NNW 2.0mph /  3.2km/h 8.0mph /  12.9km/h 95% 0.04in /  1mm
06:02 34.9 °F /  1.6 °C 33.6 °F /  0.9 °C 29.77in /  1008hPa North 2.0mph /  3.2km/h 8.0mph /  12.9km/h 95% 0.04in /  1mm
06:12 34.7 °F /  1.5 °C 33.4 °F /  0.8 °C 29.77in /  1008hPa NNW 3.0mph /  4.8km/h 7.0mph /  11.3km/h 95% 0.04in /  1mm
06:17 34.6 °F /  1.4 °C 33.3 °F /  0.7 °C 29.77in /  1008hPa North 1.0mph /  1.6km/h 7.0mph /  11.3km/h 95% 0.04in /  1mm
06:32 34.4 °F /  1.3 °C 33.1 °F /  0.6 °C 29.77in /  1008hPa NNW 1.0mph /  1.6km/h 4.0mph /  6.4km/h 95% 0.04in /  1mm
06:37 34.4 °F /  1.3 °C 33.1 °F /  0.6 °C 29.78in /  1008.4hPa NNE 1.0mph /  1.6km/h 5.0mph /  8km/h 95% 0.04in /  1mm
06:42 34.4 °F /  1.3 °C 33.1 °F /  0.6 °C 29.78in /  1008.4hPa Calm   5.0mph /  8km/h 95% 0.04in /  1mm
06:47 34.4 °F /  1.3 °C 33.1 °F /  0.6 °C 29.78in /  1008.4hPa NNW 1.0mph /  1.6km/h 4.0mph /  6.4km/h 95% 0.04in /  1mm
06:52 34.4 °F /  1.3 °C 33.1 °F /  0.6 °C 29.78in /  1008.4hPa NNW 1.0mph /  1.6km/h 4.0mph /  6.4km/h 95% 0.04in /  1mm
06:57 34.4 °F /  1.3 °C 33.1 °F /  0.6 °C 29.78in /  1008.4hPa Calm   3.0mph /  4.8km/h 95% 0.04in /  1mm
07:02 34.4 °F /  1.3 °C 33.1 °F /  0.6 °C 29.78in /  1008.4hPa Calm   6.0mph /  9.7km/h 95% 0.04in /  1mm
07:07 34.4 °F /  1.3 °C 33.1 °F /  0.6 °C 29.79in /  1008.7hPa Calm   6.0mph /  9.7km/h 95% 0.04in /  1mm
07:12 34.6 °F /  1.4 °C 33.3 °F /  0.7 °C 29.79in /  1008.7hPa NNE 2.0mph /  3.2km/h 5.0mph /  8km/h 95% 0.04in /  1mm
07:17 34.7 °F /  1.5 °C 33.4 °F /  0.8 °C 29.79in /  1008.7hPa NNE 1.0mph /  1.6km/h 5.0mph /  8km/h 95% 0.04in /  1mm
07:22 34.7 °F /  1.5 °C 33.4 °F /  0.8 °C 29.80in /  1009hPa NNE 1.0mph /  1.6km/h 4.0mph /  6.4km/h 95% 0.04in /  1mm
07:27 34.8 °F /  1.6 °C 33.5 °F /  0.8 °C 29.80in /  1009hPa NNE 1.0mph /  1.6km/h 4.0mph /  6.4km/h 95% 0.04in /  1mm
07:32 34.8 °F /  1.6 °C 33.5 °F /  0.8 °C 29.80in /  1009hPa Calm   4.0mph /  6.4km/h 95% 0.04in /  1mm
07:37 34.9 °F /  1.6 °C 33.6 °F /  0.9 °C 29.80in /  1009hPa Calm   4.0mph /  6.4km/h 95% 0.04in /  1mm
07:52 35.1 °F /  1.7 °C 33.8 °F /  1 °C 29.80in /  1009hPa NNW 1.0mph /  1.6km/h 5.0mph /  8km/h 95% 0.04in /  1mm
07:57 35.1 °F /  1.7 °C 33.8 °F /  1 °C 29.80in /  1009hPa North 1.0mph /  1.6km/h 5.0mph /  8km/h 95% 0.04in /  1mm
08:02 35.1 °F /  1.7 °C 33.8 °F /  1 °C 29.80in /  1009hPa NNE 2.0mph /  3.2km/h 5.0mph /  8km/h 95% 0.04in /  1mm
08:07 35.0 °F /  1.7 °C 33.7 °F /  0.9 °C 29.80in /  1009hPa Calm   3.0mph /  4.8km/h 95% 0.04in /  1mm
08:12 35.2 °F /  1.8 °C 33.9 °F /  1.1 °C 29.81in /  1009.4hPa Calm   3.0mph /  4.8km/h 95% 0.04in /  1mm
08:17 35.4 °F /  1.9 °C 34.1 °F /  1.2 °C 29.81in /  1009.4hPa North 1.0mph /  1.6km/h 4.0mph /  6.4km/h 95% 0.04in /  1mm
08:27 35.4 °F /  1.9 °C 34.1 °F /  1.2 °C 29.81in /  1009.4hPa NNE 1.0mph /  1.6km/h 5.0mph /  8km/h 95% 0.04in /  1mm
08:37 35.4 °F /  1.9 °C 34.1 °F /  1.2 °C 29.81in /  1009.4hPa NW 3.0mph /  4.8km/h 5.0mph /  8km/h 95% 0.04in /  1mm
08:42 35.4 °F /  1.9 °C 34.1 °F /  1.2 °C 29.81in /  1009.4hPa Calm   5.0mph /  8km/h 95% 0.04in /  1mm
08:47 35.8 °F /  2.1 °C 34.5 °F /  1.4 °C 29.81in /  1009.4hPa NNE 2.0mph /  3.2km/h 4.0mph /  6.4km/h 95% 0.04in /  1mm
08:57 36.0 °F /  2.2 °C 34.7 °F /  1.5 °C 29.81in /  1009.4hPa NNE 1.0mph /  1.6km/h 4.0mph /  6.4km/h 95% 0.04in /  1mm
09:07 36.3 °F /  2.4 °C 34.7 °F /  1.5 °C 29.81in /  1009.4hPa North 1.0mph /  1.6km/h 4.0mph /  6.4km/h 94% 0.04in /  1mm
09:12 36.3 °F /  2.4 °C 34.7 °F /  1.5 °C 29.81in /  1009.4hPa North 1.0mph /  1.6km/h 4.0mph /  6.4km/h 94% 0.04in /  1mm
09:17 36.4 °F /  2.4 °C 34.6 °F /  1.4 °C 29.81in /  1009.4hPa North 1.0mph /  1.6km/h 4.0mph /  6.4km/h 93% 0.04in /  1mm
09:27 36.7 °F /  2.6 °C 34.9 °F /  1.6 °C 29.81in /  1009.4hPa North 2.0mph /  3.2km/h 3.0mph /  4.8km/h 93% 0.04in /  1mm
09:37 36.9 °F /  2.7 °C 34.8 °F /  1.6 °C 29.81in /  1009.4hPa NW 2.0mph /  3.2km/h 6.0mph /  9.7km/h 92% 0.04in /  1mm
09:42 36.7 °F /  2.6 °C 34.3 °F /  1.3 °C 29.82in /  1009.7hPa WNW 2.0mph /  3.2km/h 4.0mph /  6.4km/h 91% 0.04in /  1mm
09:57 37.0 °F /  2.8 °C 34.3 °F /  1.3 °C 29.82in /  1009.7hPa NW 1.0mph /  1.6km/h 5.0mph /  8km/h 90% 0.04in /  1mm
10:02 36.9 °F /  2.7 °C 34.0 °F /  1.1 °C 29.82in /  1009.7hPa Calm   5.0mph /  8km/h 89% 0.04in /  1mm
10:07 37.0 °F /  2.8 °C 34.1 °F /  1.2 °C 29.82in /  1009.7hPa Calm   3.0mph /  4.8km/h 89% 0.04in /  1mm
10:12 37.2 °F /  2.9 °C 34.3 °F /  1.3 °C 29.82in /  1009.7hPa NW 1.0mph /  1.6km/h 4.0mph /  6.4km/h 89% 0.04in /  1mm
10:17 37.3 °F /  2.9 °C 34.1 °F /  1.2 °C 29.82in /  1009.7hPa NW 3.0mph /  4.8km/h 4.0mph /  6.4km/h 88% 0.04in /  1mm
10:22 37.3 °F /  2.9 °C 34.1 °F /  1.2 °C 29.82in /  1009.7hPa NW 1.0mph /  1.6km/h 4.0mph /  6.4km/h 88% 0.04in /  1mm
10:27 37.3 °F /  2.9 °C 34.1 °F /  1.2 °C 29.83in /  1010hPa NW 1.0mph /  1.6km/h 4.0mph /  6.4km/h 88% 0.04in /  1mm
10:32 37.5 °F /  3.1 °C 34.3 °F /  1.3 °C 29.83in /  1010hPa Calm   4.0mph /  6.4km/h 88% 0.04in /  1mm
10:37 37.4 °F /  3 °C 33.9 °F /  1.1 °C 29.83in /  1010hPa WNW 1.0mph /  1.6km/h 6.0mph /  9.7km/h 87% 0.04in /  1mm
11:02 38.3 °F /  3.5 °C 34.5 °F /  1.4 °C 29.82in /  1009.7hPa WNW 2.0mph /  3.2km/h 5.0mph /  8km/h 86% 0.04in /  1mm
11:07 38.7 °F /  3.7 °C 35.2 °F /  1.8 °C 29.82in /  1009.7hPa Calm   5.0mph /  8km/h 87% 0.04in /  1mm
11:17 39.4 °F /  4.1 °C 35.0 °F /  1.7 °C 29.82in /  1009.7hPa West 3.0mph /  4.8km/h 6.0mph /  9.7km/h 84% 0.04in /  1mm
11:22 39.5 °F /  4.2 °C 34.5 °F /  1.4 °C 29.82in /  1009.7hPa Calm   5.0mph /  8km/h 82% 0.04in /  1mm
11:27 39.8 °F /  4.3 °C 35.4 °F /  1.9 °C 29.82in /  1009.7hPa NW 1.0mph /  1.6km/h 5.0mph /  8km/h 84% 0.04in /  1mm
11:32 39.7 °F /  4.3 °C 35.0 °F /  1.7 °C 29.82in /  1009.7hPa NW 2.0mph /  3.2km/h 6.0mph /  9.7km/h 83% 0.04in /  1mm
11:42 39.5 °F /  4.2 °C 34.8 °F /  1.6 °C 29.81in /  1009.4hPa NW 3.0mph /  4.8km/h 7.0mph /  11.3km/h 83% 0.04in /  1mm
12:02 40.4 °F /  4.7 °C 35.3 °F /  1.8 °C 29.81in /  1009.4hPa NNW 2.0mph /  3.2km/h 5.0mph /  8km/h 82% 0.04in /  1mm
12:17 41.3 °F /  5.2 °C 35.6 °F /  2 °C 29.80in /  1009hPa West 2.0mph /  3.2km/h 7.0mph /  11.3km/h 80% 0.04in /  1mm
12:22 41.5 °F /  5.3 °C 36.7 °F /  2.6 °C 29.80in /  1009hPa WNW 3.0mph /  4.8km/h 7.0mph /  11.3km/h 83% 0.04in /  1mm
12:27 41.4 °F /  5.2 °C 36.6 °F /  2.6 °C 29.80in /  1009hPa NW 3.0mph /  4.8km/h 6.0mph /  9.7km/h 83% 0.04in /  1mm
12:32 41.1 °F /  5.1 °C 36.0 °F /  2.2 °C 29.80in /  1009hPa NW 4.0mph /  6.4km/h 8.0mph /  12.9km/h 82% 0.04in /  1mm
12:37 40.7 °F /  4.8 °C 36.2 °F /  2.3 °C 29.80in /  1009hPa NNW 6.0mph /  9.7km/h 9.0mph /  14.5km/h 84% 0.04in /  1mm
12:42 40.6 °F /  4.8 °C 36.4 °F /  2.4 °C 29.80in /  1009hPa NNW 5.0mph /  8km/h 10.0mph /  16.1km/h 85% 0.04in /  1mm
12:47 40.9 °F /  4.9 °C 37.3 °F /  2.9 °C 29.80in /  1009hPa NW 5.0mph /  8km/h 11.0mph /  17.7km/h 87% 0.04in /  1mm
12:52 41.6 °F /  5.3 °C 38.0 °F /  3.3 °C 29.79in /  1008.7hPa WNW 3.0mph /  4.8km/h 11.0mph /  17.7km/h 87% 0.04in /  1mm
12:57 41.8 °F /  5.4 °C 37.6 °F /  3.1 °C 29.79in /  1008.7hPa West 3.0mph /  4.8km/h 9.0mph /  14.5km/h 85% 0.04in /  1mm
13:02 42.0 °F /  5.6 °C 37.2 °F /  2.9 °C 29.79in /  1008.7hPa West 7.0mph /  11.3km/h 12.0mph /  19.3km/h 83% 0.04in /  1mm
13:07 42.5 °F /  5.8 °C 38.3 °F /  3.5 °C 29.79in /  1008.7hPa WNW 6.0mph /  9.7km/h 12.0mph /  19.3km/h 85% 0.04in /  1mm
13:12 42.3 °F /  5.7 °C 36.9 °F /  2.7 °C 29.79in /  1008.7hPa WNW 8.0mph /  12.9km/h 17.0mph /  27.4km/h 81% 0.04in /  1mm
13:17 41.8 °F /  5.4 °C 36.4 °F /  2.4 °C 29.78in /  1008.4hPa West 4.0mph /  6.4km/h 17.0mph /  27.4km/h 81% 0.04in /  1mm
13:22 42.7 °F /  5.9 °C 39.1 °F /  3.9 °C 29.78in /  1008.4hPa West 3.0mph /  4.8km/h 14.0mph /  22.5km/h 87% 0.04in /  1mm
13:27 42.8 °F /  6 °C 37.7 °F /  3.2 °C 29.78in /  1008.4hPa West 6.0mph /  9.7km/h 10.0mph /  16.1km/h 82% 0.04in /  1mm
13:32 42.6 °F /  5.9 °C 36.9 °F /  2.7 °C 29.78in /  1008.4hPa West 7.0mph /  11.3km/h 14.0mph /  22.5km/h 80% 0.04in /  1mm
13:37 42.2 °F /  5.7 °C 36.5 °F /  2.5 °C 29.78in /  1008.4hPa West 5.0mph /  8km/h 14.0mph /  22.5km/h 80% 0.04in /  1mm
13:42 41.8 °F /  5.4 °C 36.7 °F /  2.6 °C 29.78in /  1008.4hPa NW 5.0mph /  8km/h 11.0mph /  17.7km/h 82% 0.04in /  1mm
13:52 42.0 °F /  5.6 °C 36.9 °F /  2.7 °C 29.78in /  1008.4hPa West 5.0mph /  8km/h 10.0mph /  16.1km/h 82% 0.04in /  1mm
13:57 41.9 °F /  5.5 °C 37.1 °F /  2.8 °C 29.78in /  1008.4hPa West 5.0mph /  8km/h 9.0mph /  14.5km/h 83% 0.04in /  1mm
14:12 41.2 °F /  5.1 °C 37.3 °F /  2.9 °C 29.79in /  1008.7hPa WNW 3.0mph /  4.8km/h 16.0mph /  25.7km/h 86% 0.05in /  1.3mm
14:17 41.1 °F /  5.1 °C 36.9 °F /  2.7 °C 29.78in /  1008.4hPa WNW 7.0mph /  11.3km/h 16.0mph /  25.7km/h 85% 0.05in /  1.3mm
14:22 41.1 °F /  5.1 °C 37.2 °F /  2.9 °C 29.78in /  1008.4hPa WNW 7.0mph /  11.3km/h 13.0mph /  20.9km/h 86% 0.05in /  1.3mm
14:27 41.0 °F /  5 °C 37.4 °F /  3 °C 29.78in /  1008.4hPa NW 6.0mph /  9.7km/h 13.0mph /  20.9km/h 87% 0.05in /  1.3mm
14:32 41.4 °F /  5.2 °C 38.4 °F /  3.6 °C 29.78in /  1008.4hPa WNW 2.0mph /  3.2km/h 12.0mph /  19.3km/h 89% 0.05in /  1.3mm
14:37 41.5 °F /  5.3 °C 38.2 °F /  3.4 °C 29.78in /  1008.4hPa WNW 5.0mph /  8km/h 10.0mph /  16.1km/h 88% 0.05in /  1.3mm
14:47 41.3 °F /  5.2 °C 38.0 °F /  3.3 °C 29.78in /  1008.4hPa WNW 5.0mph /  8km/h 13.0mph /  20.9km/h 88% 0.06in /  1.5mm
14:52 41.3 °F /  5.2 °C 38.0 °F /  3.3 °C 29.78in /  1008.4hPa NNW 4.0mph /  6.4km/h 13.0mph /  20.9km/h 88% 0.07in /  1.8mm
14:57 41.3 °F /  5.2 °C 38.0 °F /  3.3 °C 29.78in /  1008.4hPa NW 4.0mph /  6.4km/h 9.0mph /  14.5km/h 88% 0.07in /  1.8mm
15:02 41.1 °F /  5.1 °C 37.8 °F /  3.2 °C 29.78in /  1008.4hPa NW 6.0mph /  9.7km/h 13.0mph /  20.9km/h 88% 0.08in /  2mm
15:07 40.9 °F /  4.9 °C 37.6 °F /  3.1 °C 29.78in /  1008.4hPa NW 5.0mph /  8km/h 13.0mph /  20.9km/h 88% 0.08in /  2mm
15:12 40.8 °F /  4.9 °C 37.5 °F /  3.1 °C 29.78in /  1008.4hPa NW 7.0mph /  11.3km/h 13.0mph /  20.9km/h 88% 0.09in /  2.3mm
15:17 40.7 °F /  4.8 °C 37.7 °F /  3.2 °C 29.78in /  1008.4hPa NNW 4.0mph /  6.4km/h 15.0mph /  24.1km/h 89% 0.10in /  2.5mm
15:22 40.6 °F /  4.8 °C 37.6 °F /  3.1 °C 29.78in /  1008.4hPa NNW 2.0mph /  3.2km/h 15.0mph /  24.1km/h 89% 0.10in /  2.5mm
15:32 40.4 °F /  4.7 °C 37.4 °F /  3 °C 29.78in /  1008.4hPa NW 4.0mph /  6.4km/h 10.0mph /  16.1km/h 89% 0.12in /  3mm
15:37 40.2 °F /  4.6 °C 37.5 °F /  3.1 °C 29.79in /  1008.7hPa NNW 4.0mph /  6.4km/h 8.0mph /  12.9km/h 90% 0.13in /  3.3mm
15:42 40.1 °F /  4.5 °C 37.4 °F /  3 °C 29.79in /  1008.7hPa NNW 8.0mph /  12.9km/h 13.0mph /  20.9km/h 90% 0.14in /  3.6mm
15:47 39.9 °F /  4.4 °C 37.2 °F /  2.9 °C 29.79in /  1008.7hPa NNW 6.0mph /  9.7km/h 13.0mph /  20.9km/h 90% 0.15in /  3.8mm
15:57 39.7 °F /  4.3 °C 37.3 °F /  2.9 °C 29.79in /  1008.7hPa NNW 6.0mph /  9.7km/h 12.0mph /  19.3km/h 91% 0.17in /  4.3mm
16:07 40.4 °F /  4.7 °C 38.3 °F /  3.5 °C 29.79in /  1008.7hPa NNW 5.0mph /  8km/h 15.0mph /  24.1km/h 92% 0.18in /  4.6mm
16:12 40.6 °F /  4.8 °C 38.2 °F /  3.4 °C 29.79in /  1008.7hPa NNW 6.0mph /  9.7km/h 15.0mph /  24.1km/h 91% 0.18in /  4.6mm
16:27 40.9 °F /  4.9 °C 38.5 °F /  3.6 °C 29.79in /  1008.7hPa NW 3.0mph /  4.8km/h 10.0mph /  16.1km/h 91% 0.18in /  4.6mm
16:37 40.8 °F /  4.9 °C 38.4 °F /  3.6 °C 29.79in /  1008.7hPa NW 3.0mph /  4.8km/h 10.0mph /  16.1km/h 91% 0.18in /  4.6mm
16:42 40.8 °F /  4.9 °C 38.4 °F /  3.6 °C 29.79in /  1008.7hPa NW 3.0mph /  4.8km/h 10.0mph /  16.1km/h 91% 0.18in /  4.6mm
16:47 40.7 °F /  4.8 °C 38.3 °F /  3.5 °C 29.80in /  1009hPa NNW 3.0mph /  4.8km/h 9.0mph /  14.5km/h 91% 0.19in /  4.8mm
16:57 40.4 °F /  4.7 °C 37.7 °F /  3.2 °C 29.80in /  1009hPa North 4.0mph /  6.4km/h 16.0mph /  25.7km/h 90% 0.21in /  5.3mm
17:07 39.4 °F /  4.1 °C 36.7 °F /  2.6 °C 29.81in /  1009.4hPa NNW 6.0mph /  9.7km/h 17.0mph /  27.4km/h 90% 0.23in /  5.8mm
17:12 39.3 °F /  4.1 °C 36.9 °F /  2.7 °C 29.81in /  1009.4hPa NNW 3.0mph /  4.8km/h 17.0mph /  27.4km/h 91% 0.23in /  5.8mm
17:17 39.5 °F /  4.2 °C 37.1 °F /  2.8 °C 29.81in /  1009.4hPa NNW 6.0mph /  9.7km/h 14.0mph /  22.5km/h 91% 0.24in /  6.1mm
17:22 39.6 °F /  4.2 °C 37.5 °F /  3.1 °C 29.81in /  1009.4hPa NW 6.0mph /  9.7km/h 14.0mph /  22.5km/h 92% 0.24in /  6.1mm
17:32 40.0 °F /  4.4 °C 37.9 °F /  3.3 °C 29.81in /  1009.4hPa NNW 2.0mph /  3.2km/h 8.0mph /  12.9km/h 92% 0.24in /  6.1mm
17:37 40.2 °F /  4.6 °C 38.1 °F /  3.4 °C 29.81in /  1009.4hPa NNW 2.0mph /  3.2km/h 6.0mph /  9.7km/h 92% 0.24in /  6.1mm
17:42 40.3 °F /  4.6 °C 38.2 °F /  3.4 °C 29.81in /  1009.4hPa NNW 3.0mph /  4.8km/h 6.0mph /  9.7km/h 92% 0.24in /  6.1mm
17:47 40.2 °F /  4.6 °C 38.1 °F /  3.4 °C 29.81in /  1009.4hPa NW 2.0mph /  3.2km/h 9.0mph /  14.5km/h 92% 0.24in /  6.1mm
18:02 40.4 °F /  4.7 °C 38.3 °F /  3.5 °C 29.82in /  1009.7hPa NNE 4.0mph /  6.4km/h 10.0mph /  16.1km/h 92% 0.24in /  6.1mm
18:07 40.4 °F /  4.7 °C 38.3 °F /  3.5 °C 29.82in /  1009.7hPa North 3.0mph /  4.8km/h 10.0mph /  16.1km/h 92% 0.24in /  6.1mm
18:17 40.6 °F /  4.8 °C 38.5 °F /  3.6 °C 29.82in /  1009.7hPa North 3.0mph /  4.8km/h 8.0mph /  12.9km/h 92% 0.24in /  6.1mm
18:37 40.9 °F /  4.9 °C 38.8 °F /  3.8 °C 29.82in /  1009.7hPa NNW 1.0mph /  1.6km/h 9.0mph /  14.5km/h 92% 0.24in /  6.1mm
18:42 40.7 °F /  4.8 °C 38.6 °F /  3.7 °C 29.82in /  1009.7hPa NE 1.0mph /  1.6km/h 7.0mph /  11.3km/h 92% 0.24in /  6.1mm
18:47 40.9 °F /  4.9 °C 38.8 °F /  3.8 °C 29.82in /  1009.7hPa Calm   7.0mph /  11.3km/h 92% 0.24in /  6.1mm
18:52 41.4 °F /  5.2 °C 39.3 °F /  4.1 °C 29.82in /  1009.7hPa Calm   6.0mph /  9.7km/h 92% 0.24in /  6.1mm
18:57 42.0 °F /  5.6 °C 39.8 °F /  4.3 °C 29.83in /  1010hPa Calm   5.0mph /  8km/h 92% 0.24in /  6.1mm
19:02 41.9 °F /  5.5 °C 39.5 °F /  4.2 °C 29.83in /  1010hPa North 1.0mph /  1.6km/h 4.0mph /  6.4km/h 91% 0.24in /  6.1mm
19:07 41.5 °F /  5.3 °C 38.8 °F /  3.8 °C 29.83in /  1010hPa Calm   5.0mph /  8km/h 90% 0.24in /  6.1mm
19:12 41.2 °F /  5.1 °C 38.5 °F /  3.6 °C 29.83in /  1010hPa Calm   5.0mph /  8km/h 90% 0.24in /  6.1mm
19:17 41.0 °F /  5 °C 38.3 °F /  3.5 °C 29.83in /  1010hPa NNW 1.0mph /  1.6km/h 4.0mph /  6.4km/h 90% 0.24in /  6.1mm
19:32 40.6 °F /  4.8 °C 38.2 °F /  3.4 °C 29.84in /  1010.4hPa North 1.0mph /  1.6km/h 5.0mph /  8km/h 91% 0.24in /  6.1mm
19:42 40.5 °F /  4.7 °C 38.1 °F /  3.4 °C 29.84in /  1010.4hPa Calm   4.0mph /  6.4km/h 91% 0.24in /  6.1mm
19:47 40.5 °F /  4.7 °C 38.1 °F /  3.4 °C 29.84in /  1010.4hPa Calm   4.0mph /  6.4km/h 91% 0.24in /  6.1mm
19:52 40.4 °F /  4.7 °C 38.0 °F /  3.3 °C 29.84in /  1010.4hPa Calm   3.0mph /  4.8km/h 91% 0.24in /  6.1mm
19:57 40.4 °F /  4.7 °C 38.0 °F /  3.3 °C 29.84in /  1010.4hPa Calm   3.0mph /  4.8km/h 91% 0.24in /  6.1mm
20:02 40.4 °F /  4.7 °C 38.0 °F /  3.3 °C 29.85in /  1010.7hPa NE 1.0mph /  1.6km/h 5.0mph /  8km/h 91% 0.24in /  6.1mm
20:22 40.1 °F /  4.5 °C 38.0 °F /  3.3 °C 29.86in /  1011.1hPa Calm   2.0mph /  3.2km/h 92% 0.24in /  6.1mm
20:27 40.0 °F /  4.4 °C 37.9 °F /  3.3 °C 29.86in /  1011.1hPa Calm     92% 0.24in /  6.1mm
20:32 40.0 °F /  4.4 °C 37.9 °F /  3.3 °C 29.86in /  1011.1hPa Calm   1.0mph /  1.6km/h 92% 0.24in /  6.1mm
20:37 40.0 °F /  4.4 °C 37.9 °F /  3.3 °C 29.86in /  1011.1hPa Calm   3.0mph /  4.8km/h 92% 0.24in /  6.1mm
20:42 40.0 °F /  4.4 °C 37.9 °F /  3.3 °C 29.86in /  1011.1hPa Calm   3.0mph /  4.8km/h 92% 0.24in /  6.1mm
20:47 39.9 °F /  4.4 °C 37.8 °F /  3.2 °C 29.87in /  1011.4hPa Calm   3.0mph /  4.8km/h 92% 0.24in /  6.1mm
20:52 39.9 °F /  4.4 °C 37.8 °F /  3.2 °C 29.87in /  1011.4hPa Calm   3.0mph /  4.8km/h 92% 0.24in /  6.1mm
20:57 39.9 °F /  4.4 °C 37.8 °F /  3.2 °C 29.87in /  1011.4hPa Calm   3.0mph /  4.8km/h 92% 0.24in /  6.1mm
21:02 39.9 °F /  4.4 °C 38.0 °F /  3.3 °C 29.87in /  1011.4hPa Calm   3.0mph /  4.8km/h 93% 0.24in /  6.1mm
21:12 39.9 °F /  4.4 °C 38.0 °F /  3.3 °C 29.87in /  1011.4hPa NNE 1.0mph /  1.6km/h 3.0mph /  4.8km/h 93% 0.24in /  6.1mm
21:17 39.8 °F /  4.3 °C 37.9 °F /  3.3 °C 29.87in /  1011.4hPa NNE 1.0mph /  1.6km/h 3.0mph /  4.8km/h 93% 0.24in /  6.1mm
21:27 39.8 °F /  4.3 °C 37.9 °F /  3.3 °C 29.87in /  1011.4hPa Calm   2.0mph /  3.2km/h 93% 0.25in /  6.4mm
21:37 39.7 °F /  4.3 °C 37.8 °F /  3.2 °C 29.87in /  1011.4hPa NNE 1.0mph /  1.6km/h 3.0mph /  4.8km/h 93% 0.25in /  6.4mm
21:42 39.7 °F /  4.3 °C 37.8 °F /  3.2 °C 29.87in /  1011.4hPa Calm   2.0mph /  3.2km/h 93% 0.25in /  6.4mm
21:52 39.6 °F /  4.2 °C 37.7 °F /  3.2 °C 29.87in /  1011.4hPa Calm   2.0mph /  3.2km/h 93% 0.25in /  6.4mm
22:02 39.6 °F /  4.2 °C 37.7 °F /  3.2 °C 29.87in /  1011.4hPa Calm   3.0mph /  4.8km/h 93% 0.25in /  6.4mm
22:17 39.6 °F /  4.2 °C 37.7 °F /  3.2 °C 29.87in /  1011.4hPa Calm   1.0mph /  1.6km/h 93% 0.25in /  6.4mm
22:22 39.6 °F /  4.2 °C 37.7 °F /  3.2 °C 29.87in /  1011.4hPa Calm   1.0mph /  1.6km/h 93% 0.25in /  6.4mm
22:27 39.6 °F /  4.2 °C 37.7 °F /  3.2 °C 29.87in /  1011.4hPa Calm     93% 0.25in /  6.4mm
22:32 39.5 °F /  4.2 °C 37.6 °F /  3.1 °C 29.87in /  1011.4hPa Calm     93% 0.25in /  6.4mm
22:37 39.5 °F /  4.2 °C 37.6 °F /  3.1 °C 29.87in /  1011.4hPa Calm     93% 0.25in /  6.4mm
22:42 39.5 °F /  4.2 °C 37.6 °F /  3.1 °C 29.87in /  1011.4hPa Calm     93% 0.25in /  6.4mm
22:47 39.5 °F /  4.2 °C 37.6 °F /  3.1 °C 29.87in /  1011.4hPa Calm     93% 0.25in /  6.4mm
22:52 39.4 °F /  4.1 °C 37.5 °F /  3.1 °C 29.87in /  1011.4hPa Calm     93% 0.25in /  6.4mm
22:57 39.4 °F /  4.1 °C 37.5 °F /  3.1 °C 29.87in /  1011.4hPa Calm     93% 0.25in /  6.4mm
23:07 39.3 °F /  4.1 °C 37.4 °F /  3 °C 29.87in /  1011.4hPa Calm   2.0mph /  3.2km/h 93% 0.25in /  6.4mm
23:12 39.3 °F /  4.1 °C 37.4 °F /  3 °C 29.87in /  1011.4hPa Calm   2.0mph /  3.2km/h 93% 0.25in /  6.4mm
23:17 39.2 °F /  4 °C 37.3 °F /  2.9 °C 29.87in /  1011.4hPa Calm   2.0mph /  3.2km/h 93% 0.25in /  6.4mm
23:22 39.3 °F /  4.1 °C 37.4 °F /  3 °C 29.87in /  1011.4hPa Calm   2.0mph /  3.2km/h 93% 0.25in /  6.4mm
23:37 39.4 °F /  4.1 °C 37.8 °F /  3.2 °C 29.87in /  1011.4hPa North 1.0mph /  1.6km/h 4.0mph /  6.4km/h 94% 0.25in /  6.4mm
23:42 39.5 °F /  4.2 °C 37.9 °F /  3.3 °C 29.87in /  1011.4hPa Calm   4.0mph /  6.4km/h 94% 0.25in /  6.4mm
23:47 39.5 °F /  4.2 °C 37.9 °F /  3.3 °C 29.87in /  1011.4hPa Calm   4.0mph /  6.4km/h 94% 0.25in /  6.4mm
23:52 39.5 °F /  4.2 °C 37.9 °F /  3.3 °C 29.87in /  1011.4hPa North 1.0mph /  1.6km/h 4.0mph /  6.4km/h 94% 0.25in /  6.4mm
Westford Weather
Compliments of Weather Underground

 
 
Current Radar Loop:

Copyright © WestfordWeather.net 2007-2014. All rights reserved.